createdAt,value
2019-04-04T00:01:47.767Z,13.57
2019-04-04T00:04:21.905Z,12.97
2019-04-04T00:06:53.597Z,13.70
2019-04-04T00:09:26.270Z,17.80
2019-04-04T00:11:58.961Z,12.13
2019-04-04T00:14:31.615Z,13.33
2019-04-04T00:17:04.274Z,11.93
2019-04-04T00:19:36.965Z,16.27
2019-04-04T00:22:09.622Z,12.37
2019-04-04T00:24:42.299Z,12.17
2019-04-04T00:27:14.951Z,12.73
2019-04-04T00:29:47.998Z,16.67
2019-04-04T00:32:21.717Z,16.80
2019-04-04T00:34:54.405Z,15.17
2019-04-04T00:37:27.071Z,12.37
2019-04-04T00:39:59.748Z,13.23
2019-04-04T00:42:32.474Z,12.63
2019-04-04T00:45:05.271Z,17.97
2019-04-04T00:47:37.934Z,15.27
2019-04-04T00:50:10.591Z,14.07
2019-04-04T00:52:43.254Z,16.20
2019-04-04T00:55:16.385Z,14.20
2019-04-04T00:57:50.346Z,15.77
2019-04-04T01:00:24.056Z,18.63
2019-04-04T01:02:58.572Z,14.70
2019-04-04T01:05:32.643Z,17.03
2019-04-04T01:08:07.033Z,14.53
2019-04-04T01:10:39.487Z,13.63
2019-04-04T01:13:12.158Z,16.80
2019-04-04T01:15:44.939Z,17.23
2019-04-04T01:18:17.583Z,19.97
2019-04-04T01:20:50.711Z,14.20
2019-04-04T01:23:26.862Z,15.87
2019-04-04T01:25:58.114Z,16.40
2019-04-04T01:28:30.867Z,15.33
2019-04-04T01:31:08.063Z,16.30
2019-04-04T01:33:40.438Z,16.30
2019-04-04T01:36:13.116Z,15.20
2019-04-04T01:38:48.458Z,14.20
2019-04-04T01:41:22.361Z,18.53
2019-04-04T01:44:04.623Z,16.87
2019-04-04T01:46:29.438Z,18.67
2019-04-04T01:49:07.004Z,21.93
2019-04-04T01:51:40.525Z,19.10
2019-04-04T01:54:15.057Z,18.87
2019-04-04T01:56:47.810Z,24.00
2019-04-04T01:59:20.474Z,21.43
2019-04-04T02:01:52.858Z,22.83
2019-04-04T02:04:25.510Z,21.60
2019-04-04T02:06:59.173Z,18.83
2019-04-04T02:09:34.572Z,21.47
2019-04-04T02:12:07.974Z,19.57
2019-04-04T02:14:43.122Z,20.23
2019-04-04T02:17:15.650Z,21.13
2019-04-04T02:19:48.301Z,18.70
2019-04-04T02:22:20.983Z,21.33
2019-04-04T02:24:53.638Z,21.33
2019-04-04T02:27:27.821Z,18.87
2019-04-04T02:30:00.214Z,17.63
2019-04-04T02:32:32.597Z,17.77
2019-04-04T02:35:05.310Z,19.17
2019-04-04T02:37:37.983Z,19.43
2019-04-04T02:40:10.963Z,19.13
2019-04-04T02:42:43.756Z,16.03
2019-04-04T02:45:18.249Z,19.50
2019-04-04T02:47:51.452Z,19.27
2019-04-04T02:50:24.310Z,18.37
2019-04-04T02:52:57.003Z,21.97
2019-04-04T02:55:30.874Z,18.33
2019-04-04T02:58:03.899Z,21.90
2019-04-04T03:00:36.548Z,20.47
2019-04-04T03:03:09.570Z,19.20
2019-04-04T03:05:42.343Z,18.17
2019-04-04T03:08:15.011Z,19.67
2019-04-04T03:10:49.342Z,19.10
2019-04-04T03:13:22.354Z,21.37
2019-04-04T03:15:55.007Z,22.97
2019-04-04T03:18:27.675Z,21.63
2019-04-04T03:21:00.344Z,22.40
2019-04-04T03:23:33.952Z,20.20
2019-04-04T03:26:06.739Z,20.87
2019-04-04T03:28:39.418Z,22.80
2019-04-04T03:31:12.096Z,21.60
2019-04-04T03:33:44.761Z,21.90
2019-04-04T03:36:17.428Z,23.27
2019-04-04T03:38:50.078Z,22.07
2019-04-04T03:41:22.782Z,22.43
2019-04-04T03:43:55.492Z,21.67
2019-04-04T03:46:28.147Z,20.00
2019-04-04T03:49:00.825Z,19.83
2019-04-04T03:51:37.075Z,20.17
2019-04-04T03:54:07.879Z,20.60
2019-04-04T03:56:40.628Z,18.63
2019-04-04T03:59:14.129Z,16.07
2019-04-04T04:01:46.984Z,18.17
2019-04-04T04:04:19.718Z,19.37
2019-04-04T04:06:52.370Z,20.40
2019-04-04T04:09:26.449Z,18.80
2019-04-04T04:11:59.426Z,18.20
2019-04-04T04:14:32.095Z,19.13
2019-04-04T04:17:04.735Z,18.83
2019-04-04T04:19:37.428Z,17.63
2019-04-04T04:22:12.896Z,17.33
2019-04-04T04:24:44.535Z,18.40
2019-04-04T04:27:17.186Z,18.23
2019-04-04T04:29:49.843Z,19.23
2019-04-04T04:32:22.789Z,18.17
2019-04-04T04:34:55.572Z,19.93
2019-04-04T04:37:28.222Z,17.77
2019-04-04T04:40:00.897Z,16.70
2019-04-04T04:42:33.548Z,17.80
2019-04-04T04:45:06.241Z,17.00
2019-04-04T04:47:38.878Z,17.33
2019-04-04T04:50:11.551Z,19.17
2019-04-04T04:52:46.340Z,19.37
2019-04-04T04:55:18.590Z,19.00
2019-04-04T04:57:51.251Z,16.03
2019-04-04T05:00:23.914Z,18.27
2019-04-04T05:02:56.561Z,21.97
2019-04-04T05:05:31.023Z,18.00
2019-04-04T05:08:03.616Z,17.93
2019-04-04T05:10:36.317Z,17.53
2019-04-04T05:13:08.969Z,19.27
2019-04-04T05:15:41.675Z,22.10
2019-04-04T05:18:16.326Z,17.13
2019-04-04T05:20:48.741Z,21.67
2019-04-04T05:23:21.384Z,17.50
2019-04-04T05:25:56.363Z,16.40
2019-04-04T05:28:29.019Z,19.27
2019-04-04T05:31:01.714Z,16.20
2019-04-04T05:33:34.400Z,14.87
2019-04-04T05:36:07.067Z,16.70
2019-04-04T05:38:42.746Z,14.53
2019-04-04T05:41:16.428Z,16.53
2019-04-04T05:43:48.528Z,15.97
2019-04-04T05:46:21.284Z,20.40
2019-04-04T05:48:53.983Z,17.23
2019-04-04T05:51:26.713Z,17.83
2019-04-04T05:53:59.381Z,15.27
2019-04-04T05:56:32.057Z,16.53
2019-04-04T05:59:04.734Z,17.97
2019-04-04T06:01:37.493Z,24.73
2019-04-04T06:04:10.214Z,18.17
2019-04-04T06:06:42.940Z,16.17
2019-04-04T06:09:15.616Z,17.27
2019-04-04T06:11:48.737Z,16.03
2019-04-04T06:14:21.516Z,18.60
2019-04-04T06:16:54.187Z,20.17
2019-04-04T06:19:26.848Z,16.63
2019-04-04T06:21:59.730Z,15.60
2019-04-04T06:24:32.395Z,18.40
2019-04-04T06:27:05.085Z,19.20
2019-04-04T06:29:37.747Z,16.87
2019-04-04T06:32:10.435Z,20.57
2019-04-04T06:34:44.265Z,18.70
2019-04-04T06:37:18.076Z,20.97
2019-04-04T06:39:54.265Z,15.60
2019-04-04T06:42:26.547Z,18.07
2019-04-04T06:44:59.199Z,16.63
2019-04-04T06:47:32.493Z,15.67
2019-04-04T06:50:08.093Z,31.33
2019-04-04T06:52:41.139Z,13.50
2019-04-04T06:55:13.805Z,19.23
2019-04-04T06:57:47.989Z,16.43
2019-04-04T07:00:20.870Z,14.63
2019-04-04T07:02:56.100Z,14.57
2019-04-04T07:05:27.910Z,19.30
2019-04-04T07:08:00.609Z,15.93
2019-04-04T07:10:33.266Z,15.63
2019-04-04T07:13:20.632Z,14.80
2019-04-04T07:15:46.792Z,16.63
2019-04-04T07:18:14.810Z,12.70
2019-04-04T07:20:48.341Z,12.97
2019-04-04T07:23:21.439Z,13.80
2019-04-04T07:25:54.126Z,14.73
2019-04-04T07:28:26.817Z,15.77
2019-04-04T07:31:01.708Z,13.50
2019-04-04T07:33:33.885Z,12.70
2019-04-04T07:36:06.550Z,15.30
2019-04-04T07:38:39.242Z,12.80
2019-04-04T07:41:14.589Z,14.13
2019-04-04T07:43:46.310Z,13.97
2019-04-04T07:46:18.997Z,13.67
2019-04-04T07:48:52.357Z,13.40
2019-04-04T07:51:25.089Z,11.87
2019-04-04T07:53:57.770Z,14.57
2019-04-04T07:56:30.443Z,13.97
2019-04-04T07:59:02.838Z,14.23
2019-04-04T08:01:35.214Z,15.07
2019-04-04T08:04:08.187Z,16.30
2019-04-04T08:06:40.861Z,16.27
2019-04-04T08:09:13.526Z,20.50
2019-04-04T08:11:46.199Z,15.27
2019-04-04T08:14:18.898Z,14.00
2019-04-04T08:16:51.550Z,15.17
2019-04-04T08:19:23.962Z,17.17
2019-04-04T08:21:56.410Z,15.90
2019-04-04T08:24:29.427Z,15.87
2019-04-04T08:27:02.108Z,13.10
2019-04-04T08:29:34.830Z,14.40
2019-04-04T08:32:08.782Z,14.87
2019-04-04T08:34:41.480Z,15.13
2019-04-04T08:37:14.130Z,12.53
2019-04-04T08:39:46.807Z,15.93
2019-04-04T08:42:19.507Z,14.70
2019-04-04T08:44:52.677Z,13.57
2019-04-04T08:47:25.438Z,16.17
2019-04-04T08:49:58.143Z,15.53
2019-04-04T08:52:30.822Z,16.03
2019-04-04T08:55:03.522Z,17.80
2019-04-04T08:57:36.210Z,17.20
2019-04-04T09:00:08.870Z,16.57
2019-04-04T09:02:41.550Z,16.77
2019-04-04T09:05:14.212Z,17.17
2019-04-04T09:07:46.867Z,14.73
2019-04-04T09:10:19.569Z,14.03
2019-04-04T09:12:52.239Z,13.17
2019-04-04T09:15:24.938Z,13.97
2019-04-04T09:17:57.616Z,12.90
2019-04-04T09:20:30.278Z,10.73
2019-04-04T09:23:02.948Z,12.17
2019-04-04T09:25:35.647Z,11.50
2019-04-04T09:28:08.518Z,14.70
2019-04-04T09:30:41.206Z,13.37
2019-04-04T09:33:13.887Z,15.60
2019-04-04T09:35:46.582Z,15.77
2019-04-04T09:38:19.298Z,14.53
2019-04-04T09:40:51.979Z,12.63
2019-04-04T09:43:24.699Z,10.80
2019-04-04T09:45:57.417Z,9.93
2019-04-04T09:48:31.582Z,10.20
2019-04-04T09:51:04.295Z,9.87
2019-04-04T09:53:52.089Z,10.27
2019-04-04T09:56:11.350Z,14.73
2019-04-04T09:58:44.002Z,9.97
2019-04-04T10:01:16.677Z,11.03
2019-04-04T10:03:49.370Z,10.83
2019-04-04T10:06:22.041Z,9.40
2019-04-04T10:08:54.684Z,8.83
2019-04-04T10:11:27.451Z,8.57
2019-04-04T10:14:00.097Z,12.97
2019-04-04T10:16:32.774Z,10.90
2019-04-04T10:19:05.443Z,10.33
2019-04-04T10:21:38.133Z,11.87
2019-04-04T10:24:10.830Z,9.90
2019-04-04T10:26:43.515Z,10.20
2019-04-04T10:29:16.170Z,10.27
2019-04-04T10:31:48.847Z,10.10
2019-04-04T10:34:21.522Z,11.47
2019-04-04T10:36:54.194Z,10.30
2019-04-04T10:39:28.975Z,11.33
2019-04-04T10:42:01.266Z,12.07
2019-04-04T10:44:36.911Z,12.87
2019-04-04T10:47:08.386Z,13.07
2019-04-04T10:49:41.200Z,13.03
2019-04-04T10:52:13.893Z,11.43
2019-04-04T10:54:46.562Z,12.43
2019-04-04T10:57:19.235Z,13.20
2019-04-04T10:59:54.662Z,11.47
2019-04-04T11:02:26.273Z,12.17
2019-04-04T11:04:58.954Z,12.10
2019-04-04T11:07:31.632Z,13.70
2019-04-04T11:10:04.542Z,12.37
2019-04-04T11:12:37.572Z,10.27
2019-04-04T11:15:10.921Z,11.53
2019-04-04T11:17:43.681Z,10.73
2019-04-04T11:20:16.342Z,12.80
2019-04-04T11:22:49.019Z,13.00
2019-04-04T11:25:21.690Z,11.73
2019-04-04T11:27:54.357Z,12.13
2019-04-04T11:30:27.074Z,10.53
2019-04-04T11:32:59.797Z,12.57
2019-04-04T11:35:32.743Z,11.40
2019-04-04T11:38:05.424Z,10.97
2019-04-04T11:40:38.082Z,13.90
2019-04-04T11:43:10.780Z,9.97
2019-04-04T11:45:43.481Z,9.80
2019-04-04T11:48:16.157Z,11.23
2019-04-04T11:50:48.841Z,10.50
2019-04-04T11:53:21.551Z,10.40
2019-04-04T11:55:54.214Z,14.10
2019-04-04T11:58:26.886Z,19.20
2019-04-04T12:00:59.645Z,18.57
2019-04-04T12:03:32.327Z,13.07
2019-04-04T12:06:04.994Z,11.70
2019-04-04T12:08:37.666Z,9.17
2019-04-04T12:11:10.334Z,10.53
2019-04-04T12:13:43.013Z,10.17
2019-04-04T12:16:15.670Z,11.63
2019-04-04T12:18:48.354Z,9.97
2019-04-04T12:21:21.007Z,9.47
2019-04-04T12:23:53.684Z,9.30
2019-04-04T12:26:26.351Z,8.17
2019-04-04T12:28:59.187Z,10.90
2019-04-04T12:31:31.847Z,10.67
2019-04-04T12:34:04.531Z,10.97
2019-04-04T12:36:37.178Z,10.30
2019-04-04T12:39:09.836Z,6.90
2019-04-04T12:41:42.530Z,12.23
2019-04-04T12:44:15.190Z,8.80
2019-04-04T12:46:47.858Z,10.63
2019-04-04T12:49:20.534Z,9.10
2019-04-04T12:51:53.266Z,9.50
2019-04-04T12:54:25.950Z,10.33
2019-04-04T12:56:58.638Z,12.67
2019-04-04T12:59:31.341Z,11.83
2019-04-04T13:02:03.990Z,10.10
2019-04-04T13:04:36.669Z,12.57
2019-04-04T13:07:09.338Z,12.23
2019-04-04T13:09:42.031Z,12.80
2019-04-04T13:12:14.683Z,10.23
2019-04-04T13:14:47.341Z,11.80
2019-04-04T13:17:20.022Z,9.47
2019-04-04T13:19:52.737Z,12.43
2019-04-04T13:22:25.370Z,11.90
2019-04-04T13:24:58.202Z,11.33
2019-04-04T13:27:30.861Z,14.10
2019-04-04T13:30:04.835Z,11.00
2019-04-04T13:32:37.553Z,11.13
2019-04-04T13:35:10.227Z,10.37
2019-04-04T13:37:42.907Z,12.03
2019-04-04T13:40:15.582Z,11.20
2019-04-04T13:42:48.310Z,12.37
2019-04-04T13:45:21.015Z,14.73
2019-04-04T13:47:53.677Z,13.93
2019-04-04T13:50:26.369Z,10.13
2019-04-04T13:52:59.026Z,12.73
2019-04-04T13:55:31.698Z,12.10
2019-04-04T13:58:04.359Z,16.53
2019-04-04T14:00:37.053Z,12.47
2019-04-04T14:03:09.720Z,12.67
2019-04-04T14:05:42.385Z,15.43
2019-04-04T14:08:15.038Z,12.70
2019-04-04T14:10:57.544Z,14.13
2019-04-04T14:13:22.085Z,11.83
2019-04-04T14:15:54.755Z,13.27
2019-04-04T14:18:39.184Z,13.20
2019-04-04T14:21:03.993Z,14.20
2019-04-04T14:23:36.242Z,11.17
2019-04-04T14:26:08.916Z,11.60
2019-04-04T14:28:41.563Z,12.20
2019-04-04T14:31:14.234Z,11.33
2019-04-04T14:33:46.882Z,10.83
2019-04-04T14:36:19.574Z,11.80
2019-04-04T14:38:52.226Z,11.47
2019-04-04T14:41:24.931Z,14.63
2019-04-04T14:43:59.831Z,12.27
2019-04-04T14:46:31.976Z,13.77
2019-04-04T14:49:04.632Z,12.63
2019-04-04T14:51:37.299Z,12.60
2019-04-04T14:54:09.956Z,11.20
2019-04-04T14:56:42.626Z,13.70
2019-04-04T14:59:15.316Z,12.27
2019-04-04T15:01:48.027Z,11.53
2019-04-04T15:04:20.998Z,10.57
2019-04-04T15:06:53.682Z,9.53
2019-04-04T15:09:26.337Z,12.00
2019-04-04T15:11:59.007Z,17.00
2019-04-04T15:14:31.670Z,12.83
2019-04-04T15:17:04.330Z,11.77
2019-04-04T15:19:36.985Z,12.23
2019-04-04T15:22:09.663Z,10.53
2019-04-04T15:24:42.373Z,12.30
2019-04-04T15:27:15.158Z,9.13
2019-04-04T15:29:47.840Z,13.27
2019-04-04T15:32:20.519Z,12.07
2019-04-04T15:34:53.162Z,12.00
2019-04-04T15:37:25.858Z,11.60
2019-04-04T15:39:58.527Z,11.30
2019-04-04T15:42:32.703Z,11.83
2019-04-04T15:45:05.463Z,12.53
2019-04-04T15:47:38.154Z,10.90
2019-04-04T15:50:10.818Z,14.67
2019-04-04T15:52:43.508Z,39.67
2019-04-04T15:55:16.182Z,26.53
2019-04-04T15:57:51.547Z,18.13
2019-04-04T16:00:24.205Z,13.90
2019-04-04T16:02:56.889Z,12.67
2019-04-04T16:05:29.545Z,21.10
2019-04-04T16:08:02.253Z,13.00
2019-04-04T16:10:34.921Z,13.27
2019-04-04T16:13:07.626Z,11.83
2019-04-04T16:15:40.269Z,14.90
2019-04-04T16:18:13.178Z,13.40
2019-04-04T16:20:45.842Z,14.77
2019-04-04T16:23:18.545Z,15.10
2019-04-04T16:25:51.288Z,13.60
2019-04-04T16:28:23.966Z,13.63
2019-04-04T16:30:56.657Z,14.17
2019-04-04T16:33:29.298Z,15.30
2019-04-04T16:36:01.964Z,16.27
2019-04-04T16:38:34.731Z,14.17
2019-04-04T16:41:08.404Z,15.27
2019-04-04T16:43:41.129Z,16.93
2019-04-04T16:46:13.813Z,16.43
2019-04-04T16:48:46.526Z,16.03
2019-04-04T16:51:19.206Z,17.43
2019-04-04T16:53:51.898Z,17.17
2019-04-04T16:56:24.550Z,19.63
2019-04-04T16:58:57.451Z,28.13
2019-04-04T17:01:30.094Z,20.27
2019-04-04T17:04:03.517Z,17.20
2019-04-04T17:06:36.227Z,15.80
2019-04-04T17:09:08.881Z,18.77
2019-04-04T17:11:41.550Z,19.23
2019-04-04T17:14:14.247Z,18.50
2019-04-04T17:16:46.912Z,28.73
2019-04-04T17:19:19.651Z,16.83
2019-04-04T17:21:52.292Z,15.93
2019-04-04T17:24:24.998Z,20.53
2019-04-04T17:26:57.732Z,17.30
2019-04-04T17:29:30.466Z,15.57
2019-04-04T17:32:03.139Z,16.47
2019-04-04T17:34:35.819Z,17.87
2019-04-04T17:37:08.990Z,18.83
2019-04-04T17:39:41.810Z,19.10
2019-04-04T17:42:27.443Z,26.20
2019-04-04T17:44:49.062Z,22.50
2019-04-04T17:47:21.747Z,22.27
2019-04-04T17:49:54.774Z,24.37
2019-04-04T17:52:27.571Z,25.23
2019-04-04T17:55:00.304Z,24.33
2019-04-04T17:57:33.043Z,23.70
2019-04-04T18:00:06.738Z,22.43
2019-04-04T18:02:39.390Z,22.93
2019-04-04T18:05:12.073Z,20.47
2019-04-04T18:07:44.799Z,21.57
2019-04-04T18:10:17.472Z,22.57
2019-04-04T18:12:50.143Z,23.67
2019-04-04T18:15:22.830Z,23.20
2019-04-04T18:17:56.764Z,22.83
2019-04-04T18:20:29.564Z,25.83
2019-04-04T18:23:02.309Z,23.30
2019-04-04T18:25:34.982Z,21.17
2019-04-04T18:28:07.630Z,21.10
2019-04-04T18:30:40.331Z,24.47
2019-04-04T18:33:12.981Z,21.27
2019-04-04T18:35:45.722Z,21.97
2019-04-04T18:38:18.411Z,21.67
2019-04-04T18:40:51.570Z,23.87
2019-04-04T18:43:24.277Z,23.57
2019-04-04T18:45:57.066Z,24.23
2019-04-04T18:48:29.710Z,28.13
2019-04-04T18:51:02.430Z,23.53
2019-04-04T18:53:35.106Z,25.33
2019-04-04T18:56:07.758Z,25.03
2019-04-04T18:58:40.410Z,25.27
2019-04-04T19:01:13.566Z,29.47
2019-04-04T19:03:46.223Z,24.67
2019-04-04T19:06:18.930Z,25.47
2019-04-04T19:08:51.599Z,26.37
2019-04-04T19:11:24.280Z,28.17
2019-04-04T19:13:56.922Z,25.97
2019-04-04T19:16:29.633Z,23.13
2019-04-04T19:19:02.279Z,24.03
2019-04-04T19:21:34.997Z,27.70
2019-04-04T19:24:07.708Z,25.67
2019-04-04T19:26:40.427Z,25.13
2019-04-04T19:29:13.125Z,26.43
2019-04-04T19:31:45.886Z,27.20
2019-04-04T19:34:18.575Z,27.07
2019-04-04T19:36:51.237Z,29.83
2019-04-04T19:39:23.911Z,28.43
2019-04-04T19:41:56.627Z,27.37
2019-04-04T19:44:29.313Z,30.90
2019-04-04T19:47:01.995Z,31.67
2019-04-04T19:49:35.242Z,35.27
2019-04-04T19:52:07.928Z,33.40
2019-04-04T19:54:40.872Z,34.83
2019-04-04T19:57:13.585Z,33.97
2019-04-04T19:59:46.259Z,35.73
2019-04-04T20:02:18.970Z,34.70
2019-04-04T20:04:51.709Z,33.70
2019-04-04T20:07:24.378Z,34.13
2019-04-04T20:09:57.045Z,31.73
2019-04-04T20:12:29.730Z,28.60
2019-04-04T20:15:02.474Z,32.07
2019-04-04T20:17:35.143Z,31.43
2019-04-04T20:20:07.911Z,32.03
2019-04-04T20:22:40.613Z,31.53
2019-04-04T20:25:13.290Z,29.60
2019-04-04T20:27:54.739Z,32.67
2019-04-04T20:30:33.386Z,33.13
2019-04-04T20:33:06.258Z,28.43
2019-04-04T20:35:40.395Z,33.73
2019-04-04T20:38:15.189Z,34.87
2019-04-04T20:40:48.087Z,33.47
2019-04-04T20:43:20.985Z,34.93
2019-04-04T20:45:54.985Z,34.63
2019-04-04T20:48:31.928Z,32.90
2019-04-04T20:51:04.924Z,33.00
2019-04-04T20:53:37.834Z,35.07
2019-04-04T20:56:12.892Z,37.13
2019-04-04T20:58:50.251Z,36.37
2019-04-04T21:01:23.042Z,37.37
2019-04-04T21:03:55.836Z,42.07
2019-04-04T21:06:30.206Z,44.03
2019-04-04T21:09:03.073Z,35.47
2019-04-04T21:11:41.331Z,38.93
2019-04-04T21:14:19.527Z,41.10
2019-04-04T21:16:52.241Z,39.97
2019-04-04T21:19:24.983Z,39.00
2019-04-04T21:21:57.646Z,39.33
2019-04-04T21:24:30.323Z,37.37
2019-04-04T21:27:03.005Z,36.70
2019-04-04T21:29:35.813Z,34.30
2019-04-04T21:32:08.597Z,40.83
2019-04-04T21:34:41.310Z,37.70
2019-04-04T21:37:13.979Z,33.30
2019-04-04T21:39:46.652Z,32.63
2019-04-04T21:42:19.329Z,35.53
2019-04-04T21:44:52.030Z,29.93
2019-04-04T21:47:24.720Z,31.27
2019-04-04T21:49:57.435Z,30.73
2019-04-04T21:52:30.100Z,30.53
2019-04-04T21:55:02.867Z,30.13
2019-04-04T21:57:35.522Z,33.20
2019-04-04T22:00:08.313Z,38.03
2019-04-04T22:02:41.006Z,29.27
2019-04-04T22:05:13.692Z,34.67
2019-04-04T22:07:46.371Z,27.97
2019-04-04T22:10:19.046Z,28.60
2019-04-04T22:12:51.718Z,25.23
2019-04-04T22:15:24.398Z,28.13
2019-04-04T22:17:57.121Z,27.43
2019-04-04T22:20:29.790Z,32.50
2019-04-04T22:23:02.487Z,30.50
2019-04-04T22:25:35.180Z,28.37
2019-04-04T22:28:07.836Z,27.87
2019-04-04T22:30:40.522Z,30.73
2019-04-04T22:33:13.196Z,26.77
2019-04-04T22:35:45.866Z,28.60
2019-04-04T22:38:18.511Z,28.60
2019-04-04T22:40:51.191Z,35.03
2019-04-04T22:43:23.858Z,32.27
2019-04-04T22:45:56.549Z,30.53
2019-04-04T22:48:29.202Z,27.60
2019-04-04T22:51:01.904Z,30.87
2019-04-04T22:53:34.582Z,28.27
2019-04-04T22:56:07.266Z,25.60
2019-04-04T22:58:39.938Z,27.03
2019-04-04T23:01:12.626Z,30.27
2019-04-04T23:03:45.277Z,28.10
2019-04-04T23:06:17.947Z,32.83
2019-04-04T23:08:50.593Z,32.10
2019-04-04T23:11:23.314Z,30.13
2019-04-04T23:13:55.954Z,31.63
2019-04-04T23:16:28.594Z,31.77
2019-04-04T23:19:01.242Z,30.50
2019-04-04T23:21:33.908Z,27.93
2019-04-04T23:24:06.545Z,33.90
2019-04-04T23:26:39.219Z,27.30
2019-04-04T23:29:11.870Z,30.87
2019-04-04T23:31:44.547Z,31.30
2019-04-04T23:34:17.239Z,31.43
2019-04-04T23:36:49.906Z,29.87
2019-04-04T23:39:22.607Z,28.43
2019-04-04T23:41:55.272Z,27.53
2019-04-04T23:44:27.910Z,24.93
2019-04-04T23:47:00.663Z,23.87
2019-04-04T23:49:33.301Z,23.93
2019-04-04T23:52:05.958Z,28.57
2019-04-04T23:54:38.598Z,29.30
2019-04-04T23:57:11.256Z,26.20
2019-04-04T23:59:43.890Z,25.40
